Time;durP1;ratioP1;P1;durP2;ratioP2;P2;SDS_P1;SDS_P2;PMS_P1;PMS_P2;Temp;Humidity;BMP_temperature;BMP_pressure;BME280_temperature;BME280_humidity;BME280_pressure;Samples;Min_cycle;Max_cycle;Signal;HPM_P1;HPM_P2
2022/09/07 00:00:16;;;;;;;0.20;0.20;;;;;;;21.59;62.96;100770.06;5161996;28;20075;-80
2022/09/07 00:02:46;;;;;;;0.30;0.30;;;;;;;21.66;62.39;100768.66;5174826;28;20041;-81
2022/09/07 00:05:17;;;;;;;0.38;0.38;;;;;;;21.60;62.18;100763.75;5164048;28;20088;-80
2022/09/07 00:07:48;;;;;;;0.30;0.30;;;;;;;21.41;65.92;100774.91;5183851;28;20040;-80
2022/09/07 00:10:20;;;;;;;0.40;0.40;;;;;;;21.59;61.35;100762.94;5163492;28;20029;-80
2022/09/07 00:12:51;;;;;;;0.20;0.20;;;;;;;21.68;61.01;100754.25;5195568;28;20038;-80
2022/09/07 00:15:21;;;;;;;0.20;0.20;;;;;;;21.74;60.02;100744.06;5175076;28;20056;-80
2022/09/07 00:17:52;;;;;;;0.82;0.82;;;;;;;21.80;59.56;100743.59;5162033;28;20208;-79
2022/09/07 00:20:23;;;;;;;0.20;0.20;;;;;;;21.84;58.64;100742.41;5163752;28;20256;-81
2022/09/07 00:22:57;;;;;;;0.60;0.32;;;;;;;21.91;57.83;100751.69;5159178;28;20079;-80
2022/09/07 00:25:27;;;;;;;3.03;1.25;;;;;;;21.99;57.71;100759.97;5179459;28;20495;-81
2022/09/07 00:27:58;;;;;;;0.65;0.30;;;;;;;22.06;57.48;100776.41;5129604;28;20614;-81
2022/09/07 00:30:29;;;;;;;0.25;0.25;;;;;;;22.06;57.32;100775.53;5170378;28;20034;-81
2022/09/07 00:32:59;;;;;;;0.20;0.20;;;;;;;22.00;58.15;100777.69;5154356;28;20057;-81
2022/09/07 00:35:41;;;;;;;;;;;;;;;22.11;57.76;100773.34;5177786;28;20086;-80
2022/09/07 00:38:12;;;;;;;0.20;0.20;;;;;;;22.11;56.79;100778.69;5163306;28;19917;-80
2022/09/07 00:40:43;;;;;;;0.13;0.13;;;;;;;22.12;57.54;100778.59;5177249;28;20119;-82
2022/09/07 00:43:27;;;;;;;0.20;0.20;;;;;;;22.06;58.36;100787.09;5160265;28;20677;-80
2022/09/07 00:45:58;;;;;;;0.20;0.20;;;;;;;22.10;57.35;100783.19;5161534;28;20041;-81
2022/09/07 00:48:40;;;;;;;0.20;0.20;;;;;;;22.14;57.19;100770.47;5176633;28;20069;-81
2022/09/07 00:51:17;;;;;;;3.08;1.63;;;;;;;22.17;57.38;100763.06;5181592;28;20040;-80
2022/09/07 00:53:54;;;;;;;0.20;0.20;;;;;;;22.12;57.84;100743.88;5182467;28;20076;-80
2022/09/07 00:56:30;;;;;;;0.32;0.32;;;;;;;22.24;57.39;100757.25;5176022;28;20034;-80
2022/09/07 00:59:01;;;;;;;0.30;0.30;;;;;;;22.05;61.19;100763.13;5177076;28;20044;-80
2022/09/07 01:01:32;;;;;;;0.30;0.30;;;;;;;22.09;58.17;100756.59;5148201;28;20030;-80
2022/09/07 01:04:04;;;;;;;0.40;0.40;;;;;;;22.12;57.87;100743.00;5153984;28;20046;-80
2022/09/07 01:06:37;;;;;;;0.20;0.20;;;;;;;22.13;57.98;100734.88;5165142;28;20033;-80
2022/09/07 01:09:14;;;;;;;0.20;0.20;;;;;;;22.17;57.00;100725.66;5163060;28;20072;-81
2022/09/07 01:11:49;;;;;;;0.40;0.40;;;;;;;22.19;56.57;100714.00;5164811;28;20506;-80
2022/09/07 01:14:24;;;;;;;0.30;0.30;;;;;;;22.16;56.51;100710.59;5164472;28;20037;-80
2022/09/07 01:17:20;;;;;;;0.22;0.22;;;;;;;22.11;57.16;100698.53;5175532;28;20447;-80
2022/09/07 01:20:02;;;;;;;0.75;0.40;;;;;;;22.13;56.51;100696.63;5162543;28;20050;-80
2022/09/07 01:22:46;;;;;;;0.38;0.38;;;;;;;22.15;55.84;100686.66;5170573;28;20053;-80
2022/09/07 01:25:42;;;;;;;0.30;0.30;;;;;;;22.13;56.53;100702.81;5190256;28;20037;-80
2022/09/07 01:28:23;;;;;;;0.20;0.20;;;;;;;22.19;56.05;100701.47;5164637;28;20053;-79
2022/09/07 01:30:55;;;;;;;0.15;0.15;;;;;;;22.18;56.03;100705.16;5170708;28;20063;-81
2022/09/07 01:33:46;;;;;;;0.40;0.40;;;;;;;22.18;56.06;100710.50;5185369;28;20042;-80
2022/09/07 01:36:26;;;;;;;0.30;0.30;;;;;;;22.19;55.88;100712.16;5172369;28;20454;-80
2022/09/07 01:39:00;;;;;;;0.38;0.38;;;;;;;22.20;56.09;100713.88;5184645;28;20088;-81
2022/09/07 01:41:56;;;;;;;0.20;0.20;;;;;;;22.31;57.83;100705.06;5172149;28;20032;-80
2022/09/07 01:44:48;;;;;;;0.30;0.30;;;;;;;22.16;56.33;100701.72;5158281;28;20072;-80
2022/09/07 01:47:57;;;;;;;0.30;0.30;;;;;;;22.18;56.30;100710.50;5168852;28;20057;-80
2022/09/07 01:50:44;;;;;;;0.20;0.20;;;;;;;22.18;55.97;100713.16;5181340;28;20292;-81
2022/09/07 01:53:37;;;;;;;0.38;0.38;;;;;;;22.18;56.79;100715.84;5167116;28;20694;-80
2022/09/07 01:56:26;;;;;;;0.47;0.45;;;;;;;22.17;56.35;100714.97;5177759;28;20026;-80
2022/09/07 01:59:02;;;;;;;0.70;0.43;;;;;;;22.08;56.92;100717.50;5176508;28;20073;-81
2022/09/07 02:01:53;;;;;;;1.15;0.60;;;;;;;22.08;56.53;100710.31;5163166;28;20077;-80
2022/09/07 02:04:35;;;;;;;0.68;0.68;;;;;;;22.07;56.13;100713.13;5177171;28;20046;-80
2022/09/07 02:07:22;;;;;;;0.20;0.20;;;;;;;22.08;56.19;100706.81;5162250;28;20034;-80
2022/09/07 02:10:01;;;;;;;0.30;0.30;;;;;;;22.07;56.34;100708.63;5162372;28;20161;-80
2022/09/07 02:13:05;;;;;;;0.43;0.43;;;;;;;22.05;56.34;100699.88;5153826;28;20477;-80
2022/09/07 02:15:45;;;;;;;0.30;0.30;;;;;;;22.03;56.95;100691.13;5160306;28;20081;-80
2022/09/07 02:18:16;;;;;;;0.30;0.30;;;;;;;22.00;56.95;100689.56;5158460;28;20042;-80
2022/09/07 02:20:52;;;;;;;0.20;0.20;;;;;;;22.01;56.77;100690.38;5172481;28;20081;-80
2022/09/07 02:23:36;;;;;;;0.30;0.30;;;;;;;21.95;56.96;100681.00;5142219;28;20100;-80
2022/09/07 02:26:15;;;;;;;0.25;0.25;;;;;;;22.01;56.43;100672.56;5162238;28;20496;-80
2022/09/07 02:28:46;;;;;;;0.65;0.38;;;;;;;21.97;57.37;100665.72;5145453;28;20048;-80
2022/09/07 02:31:17;;;;;;;0.20;0.20;;;;;;;21.96;56.64;100664.03;5177076;28;20040;-80
2022/09/07 02:33:48;;;;;;;0.20;0.20;;;;;;;21.97;56.52;100656.88;5160295;28;20034;-79
2022/09/07 02:36:23;;;;;;;2.20;1.45;;;;;;;21.95;56.32;100654.31;5160144;28;20602;-80
2022/09/07 02:38:54;;;;;;;0.20;0.20;;;;;;;21.90;56.94;100647.63;5167540;28;20105;-80
2022/09/07 02:41:29;;;;;;;4.90;1.30;;;;;;;21.93;56.84;100656.25;5198561;28;20033;-80
2022/09/07 02:44:06;;;;;;;0.90;0.60;;;;;;;21.89;56.67;100660.13;5164865;28;20092;-80
2022/09/07 02:46:44;;;;;;;2.08;1.10;;;;;;;21.87;56.40;100658.53;5165640;28;20521;-80
2022/09/07 02:49:40;;;;;;;3.65;1.50;;;;;;;21.83;56.49;100663.25;5159861;28;20042;-80
2022/09/07 02:52:10;;;;;;;0.40;0.40;;;;;;;21.81;56.94;100665.19;5152807;28;20077;-80
2022/09/07 02:55:02;;;;;;;0.45;0.45;;;;;;;21.80;57.16;100663.47;5164769;28;20046;-80
2022/09/07 02:57:54;;;;;;;0.20;0.20;;;;;;;21.79;56.54;100659.09;5151471;28;20053;-80
2022/09/07 03:00:33;;;;;;;0.30;0.30;;;;;;;21.74;56.38;100664.78;5176942;28;20099;-80
2022/09/07 03:03:22;;;;;;;0.35;0.35;;;;;;;21.73;56.48;100656.91;5161863;28;20042;-80
2022/09/07 03:06:16;;;;;;;0.68;0.68;;;;;;;21.70;56.30;100658.84;5189082;28;20594;-80
2022/09/07 03:08:57;;;;;;;0.43;0.43;;;;;;;21.67;56.27;100653.75;5152691;28;20049;-80
2022/09/07 03:11:30;;;;;;;0.40;0.40;;;;;;;21.66;56.65;100653.84;5149823;28;20030;-80
2022/09/07 03:14:15;;;;;;;0.38;0.38;;;;;;;21.64;56.94;100648.63;5167170;28;20045;-79
2022/09/07 03:16:52;;;;;;;0.38;0.38;;;;;;;21.70;57.01;100660.66;5180926;28;20080;-80
2022/09/07 03:19:23;;;;;;;0.93;0.40;;;;;;;21.62;56.74;100655.88;5177211;28;20026;-79
2022/09/07 03:21:53;;;;;;;0.80;0.80;;;;;;;21.59;56.99;100653.47;5163293;28;20506;-79
2022/09/07 03:24:24;;;;;;;8.57;0.98;;;;;;;21.59;57.55;100652.59;5177848;28;20077;-81
2022/09/07 03:26:56;;;;;;;1.00;1.00;;;;;;;21.52;57.25;100649.53;5162104;28;20022;-79
2022/09/07 03:29:26;;;;;;;0.40;0.40;;;;;;;21.51;57.70;100655.81;5163453;28;20113;-80
2022/09/07 03:31:57;;;;;;;0.50;0.50;;;;;;;21.52;57.15;100644.19;5147576;28;20113;-79
2022/09/07 03:34:28;;;;;;;3.75;1.27;;;;;;;21.53;57.99;100644.06;5164926;28;20022;-80
2022/09/07 03:36:58;;;;;;;1.00;1.00;;;;;;;21.47;60.89;100651.66;5180546;28;20041;-80
2022/09/07 03:39:29;;;;;;;0.85;0.85;;;;;;;21.51;58.13;100645.16;5163805;28;20091;-80
2022/09/07 03:42:03;;;;;;;1.27;0.80;;;;;;;21.46;57.66;100639.28;5165071;28;20022;-80
2022/09/07 03:44:34;;;;;;;0.52;0.52;;;;;;;21.41;57.57;100639.63;5145143;28;20042;-80
2022/09/07 03:47:08;;;;;;;5.25;2.15;;;;;;;21.31;59.40;100636.78;5176379;28;20037;-81
2022/09/07 03:49:38;;;;;;;0.90;0.90;;;;;;;21.33;58.01;100629.53;5164075;28;20037;-80
2022/09/07 03:52:09;;;;;;;2.25;1.15;;;;;;;21.37;57.98;100638.16;5164298;28;20759;-79
2022/09/07 03:54:40;;;;;;;1.20;1.15;;;;;;;21.33;58.41;100639.34;5150652;28;20041;-80
2022/09/07 03:57:10;;;;;;;0.68;0.68;;;;;;;21.32;57.49;100633.16;5160837;28;20718;-80
2022/09/07 03:59:41;;;;;;;0.85;0.85;;;;;;;21.30;58.18;100631.59;5152118;28;20081;-79
2022/09/07 04:02:13;;;;;;;1.13;1.08;;;;;;;21.28;57.91;100631.66;5179251;28;20041;-80
2022/09/07 04:04:44;;;;;;;1.38;1.27;;;;;;;21.27;58.22;100634.47;5162561;28;20030;-80
2022/09/07 04:07:16;;;;;;;0.63;0.63;;;;;;;21.26;58.04;100638.97;5153256;28;20062;-80
2022/09/07 04:09:48;;;;;;;0.73;0.73;;;;;;;21.21;57.81;100633.09;5163157;28;20022;-80
2022/09/07 04:12:18;;;;;;;0.50;0.50;;;;;;;21.20;58.35;100637.59;5160760;28;20034;-80
2022/09/07 04:14:49;;;;;;;1.27;1.17;;;;;;;21.15;58.10;100633.56;5196102;28;20037;-80
2022/09/07 04:17:20;;;;;;;1.10;1.00;;;;;;;21.16;58.00;100636.09;5164334;28;20038;-80
2022/09/07 04:19:51;;;;;;;0.57;0.57;;;;;;;21.16;59.16;100632.59;5161610;28;20032;-81
2022/09/07 04:22:21;;;;;;;0.40;0.40;;;;;;;21.10;58.69;100627.72;5173767;28;20592;-80
2022/09/07 04:24:52;;;;;;;0.40;0.40;;;;;;;21.10;59.27;100635.72;5166157;28;20023;-80
2022/09/07 04:27:23;;;;;;;0.30;0.30;;;;;;;21.05;59.04;100634.22;5176503;28;20079;-79
2022/09/07 04:29:53;;;;;;;0.30;0.30;;;;;;;21.05;58.37;100636.88;5168253;28;20041;-79
2022/09/07 04:32:24;;;;;;;4.85;1.65;;;;;;;21.02;58.32;100637.13;5185732;28;20387;-79
2022/09/07 04:34:55;;;;;;;0.73;0.73;;;;;;;21.04;57.95;100627.19;5180594;28;20014;-80
2022/09/07 04:37:25;;;;;;;0.80;0.68;;;;;;;20.95;58.93;100627.84;5175077;28;20045;-82
2022/09/07 04:39:56;;;;;;;0.40;0.40;;;;;;;20.94;58.38;100623.50;5171443;28;20557;-81
2022/09/07 04:42:28;;;;;;;1.58;0.75;;;;;;;20.96;59.03;100621.53;5186514;28;20059;-81
2022/09/07 04:44:59;;;;;;;0.40;0.40;;;;;;;20.91;58.67;100619.22;5158610;28;20555;-82
2022/09/07 04:47:30;;;;;;;0.63;0.63;;;;;;;20.92;57.91;100620.09;5185206;28;20038;-81
2022/09/07 04:50:02;;;;;;;0.57;0.57;;;;;;;20.90;57.84;100622.00;5157235;28;20530;-82
2022/09/07 04:52:33;;;;;;;0.47;0.47;;;;;;;20.93;58.85;100627.13;5178094;28;20049;-83
2022/09/07 04:55:11;;;;;;;0.20;0.20;;;;;;;20.85;58.89;100629.50;5163885;28;20044;-82
2022/09/07 04:57:41;;;;;;;0.32;0.32;;;;;;;20.83;59.35;100623.41;5170133;28;20126;-80
2022/09/07 05:00:12;;;;;;;0.47;0.47;;;;;;;20.82;58.83;100627.91;5157225;28;20677;-80
2022/09/07 05:02:43;;;;;;;0.20;0.20;;;;;;;20.81;58.17;100623.53;5152446;28;20034;-82
2022/09/07 05:05:14;;;;;;;0.52;0.52;;;;;;;20.80;58.84;100618.28;5171390;28;20030;-80
2022/09/07 05:07:44;;;;;;;1.02;1.02;;;;;;;20.74;59.15;100616.94;5191555;28;20050;-79
2022/09/07 05:10:15;;;;;;;0.47;0.47;;;;;;;20.70;58.76;100613.56;5178308;28;20018;-80
2022/09/07 05:12:46;;;;;;;0.80;0.80;;;;;;;20.68;59.54;100610.19;5198092;28;20044;-80
2022/09/07 05:15:16;;;;;;;0.32;0.32;;;;;;;20.67;59.79;100611.16;5193631;28;20033;-80
2022/09/07 05:17:48;;;;;;;0.85;0.63;;;;;;;20.73;60.39;100610.75;5175389;28;20037;-80
2022/09/07 05:20:20;;;;;;;0.20;0.20;;;;;;;20.63;59.33;100604.31;5189456;28;20022;-80
2022/09/07 05:22:58;;;;;;;0.20;0.20;;;;;;;20.64;59.12;100599.84;5176748;28;20053;-81
2022/09/07 05:25:30;;;;;;;0.30;0.30;;;;;;;20.60;58.89;100609.88;5162293;28;20068;-80
2022/09/07 05:28:18;;;;;;;0.30;0.30;;;;;;;20.56;59.34;100611.91;5177584;28;20049;-80
2022/09/07 05:30:48;;;;;;;1.67;1.55;;;;;;;20.55;59.25;100612.88;5176987;28;20056;-81
2022/09/07 05:33:19;;;;;;;0.30;0.30;;;;;;;20.55;59.48;100609.34;5137823;28;20088;-80
2022/09/07 05:35:57;;;;;;;0.43;0.43;;;;;;;20.52;58.65;100613.09;5159102;28;20145;-80
2022/09/07 05:38:28;;;;;;;0.30;0.30;;;;;;;20.55;60.43;100620.00;5168688;28;20102;-80
2022/09/07 05:40:58;;;;;;;5.43;1.13;;;;;;;20.49;59.90;100615.13;5156394;28;20046;-80
2022/09/07 05:43:29;;;;;;;0.38;0.38;;;;;;;20.48;59.57;100608.09;5188380;28;20143;-81
2022/09/07 05:46:00;;;;;;;0.65;0.65;;;;;;;20.51;59.16;100606.03;5170559;28;20032;-81
2022/09/07 05:48:31;;;;;;;0.45;0.45;;;;;;;20.51;59.23;100606.03;5184998;28;20042;-81
2022/09/07 05:51:02;;;;;;;0.30;0.30;;;;;;;20.52;59.00;100606.91;5170398;28;20030;-80
2022/09/07 05:53:35;;;;;;;0.43;0.43;;;;;;;20.45;59.88;100612.66;5155629;28;20348;-80
2022/09/07 05:56:07;;;;;;;0.50;0.50;;;;;;;20.51;59.14;100621.19;5167783;28;20026;-81
2022/09/07 05:58:40;;;;;;;0.40;0.40;;;;;;;20.51;59.59;100631.84;5163828;28;20477;-80
2022/09/07 06:01:12;;;;;;;2.47;1.38;;;;;;;20.46;60.56;100637.50;5151545;28;20041;-81
2022/09/07 06:03:43;;;;;;;0.45;0.45;;;;;;;20.51;60.81;100643.34;5177549;28;20053;-82
2022/09/07 06:06:16;;;;;;;0.70;0.70;;;;;;;20.52;60.21;100645.06;5146319;28;20061;-82
2022/09/07 06:08:50;;;;;;;0.98;0.43;;;;;;;20.52;60.12;100645.06;5161577;28;20231;-82
2022/09/07 06:11:23;;;;;;;1.98;1.17;;;;;;;20.60;62.55;100647.22;5178864;28;20116;-82
2022/09/07 06:13:54;;;;;;;2.13;1.30;;;;;;;20.44;65.63;100644.75;5147384;28;20144;-82
2022/09/07 06:16:25;;;;;;;0.93;0.93;;;;;;;20.47;66.80;100646.34;5162143;28;20030;-82
2022/09/07 06:18:56;;;;;;;0.68;0.68;;;;;;;20.45;62.99;100646.47;5166369;28;20042;-82
2022/09/07 06:21:26;;;;;;;0.73;0.73;;;;;;;20.54;62.04;100643.16;5182658;28;20033;-81
2022/09/07 06:23:58;;;;;;;0.63;0.63;;;;;;;20.59;63.61;100650.81;5150029;28;20069;-82
2022/09/07 06:26:29;;;;;;;0.40;0.40;;;;;;;20.62;62.92;100652.41;5198805;28;20557;-81
2022/09/07 06:29:04;;;;;;;0.95;0.57;;;;;;;20.60;63.26;100660.53;5165997;28;20049;-82
2022/09/07 06:31:35;;;;;;;0.22;0.22;;;;;;;20.54;64.27;100658.28;5164418;28;20053;-82
2022/09/07 06:34:08;;;;;;;0.57;0.57;;;;;;;20.56;63.38;100667.03;5184195;28;20068;-81
2022/09/07 06:36:39;;;;;;;0.50;0.50;;;;;;;20.52;66.44;100676.22;5182303;28;20037;-81
2022/09/07 06:39:14;;;;;;;2.30;1.30;;;;;;;20.53;65.53;100675.25;5187404;28;20542;-80
2022/09/07 06:41:47;;;;;;;0.20;0.20;;;;;;;20.53;68.14;100680.59;5153440;28;20013;-80
2022/09/07 06:44:19;;;;;;;0.50;0.50;;;;;;;20.63;64.82;100681.63;5166298;28;20042;-81
2022/09/07 06:46:49;;;;;;;0.52;0.52;;;;;;;20.64;67.99;100686.00;5166345;28;20034;-82
2022/09/07 06:49:20;;;;;;;1.15;1.00;;;;;;;20.67;67.27;100684.91;5165598;28;20030;-81
2022/09/07 06:51:51;;;;;;;1.75;1.35;;;;;;;20.63;66.08;100684.28;5166998;28;20168;-82
2022/09/07 06:54:21;;;;;;;0.80;0.65;;;;;;;20.72;64.50;100688.13;5167046;28;20058;-81
2022/09/07 06:56:52;;;;;;;0.80;0.70;;;;;;;20.75;64.73;100693.25;5166466;28;20026;-81
2022/09/07 06:59:23;;;;;;;63.22;43.42;;;;;;;20.81;64.04;100703.53;5163636;28;20069;-81
2022/09/07 07:01:53;;;;;;;20.33;13.52;;;;;;;20.83;63.89;100708.72;5181559;28;20030;-81
2022/09/07 07:04:24;;;;;;;2.85;2.40;;;;;;;20.80;64.54;100701.81;5160152;28;20133;-81
2022/09/07 07:06:55;;;;;;;1.38;1.05;;;;;;;20.81;66.02;100706.19;5166751;28;20097;-81
2022/09/07 07:09:25;;;;;;;0.70;0.70;;;;;;;20.81;66.03;100700.84;5177808;28;20034;-80
2022/09/07 07:11:56;;;;;;;0.32;0.32;;;;;;;20.70;67.54;100712.22;5167095;28;20034;-80
2022/09/07 07:14:26;;;;;;;0.30;0.30;;;;;;;20.75;68.30;100702.13;5182474;28;20040;-80
2022/09/07 07:16:57;;;;;;;0.40;0.40;;;;;;;20.62;68.46;100709.22;5167836;28;20022;-80
2022/09/07 07:19:28;;;;;;;0.20;0.20;;;;;;;20.62;68.14;100703.06;5172168;28;20313;-80
2022/09/07 07:21:58;;;;;;;0.57;0.57;;;;;;;20.75;65.17;100711.94;5170844;28;20057;-80
2022/09/07 07:24:29;;;;;;;0.30;0.30;;;;;;;20.72;67.97;100714.78;5174800;28;20033;-80
2022/09/07 07:27:00;;;;;;;0.20;0.20;;;;;;;20.65;66.27;100725.03;5153289;28;20624;-80
2022/09/07 07:29:30;;;;;;;0.20;0.20;;;;;;;20.78;65.95;100729.53;5168116;28;20057;-80
2022/09/07 07:32:03;;;;;;;0.47;0.47;;;;;;;20.74;66.23;100724.41;5182530;28;20684;-81
2022/09/07 07:34:34;;;;;;;0.20;0.20;;;;;;;20.64;68.09;100728.66;5162625;28;20638;-81
2022/09/07 07:37:05;;;;;;;0.20;0.20;;;;;;;20.51;68.42;100725.97;5199665;28;20033;-81
2022/09/07 07:39:36;;;;;;;0.13;0.13;;;;;;;20.60;67.99;100724.50;5165177;28;20058;-81
2022/09/07 07:42:07;;;;;;;0.45;0.40;;;;;;;20.60;66.78;100722.69;5165936;28;20121;-80
2022/09/07 07:44:38;;;;;;;0.20;0.20;;;;;;;20.68;65.48;100715.97;5181239;28;20426;-80
2022/09/07 07:47:09;;;;;;;0.50;0.50;;;;;;;20.67;65.51;100727.56;5180571;28;20133;-81
2022/09/07 07:49:39;;;;;;;0.73;0.73;;;;;;;20.67;64.77;100723.13;5147956;28;20057;-81
2022/09/07 07:52:10;;;;;;;0.20;0.20;;;;;;;20.79;64.69;100726.75;5155904;28;20057;-81
2022/09/07 07:54:42;;;;;;;0.63;0.63;;;;;;;20.73;64.46;100725.38;5166183;28;20703;-81
2022/09/07 07:57:13;;;;;;;0.20;0.20;;;;;;;20.72;64.43;100736.97;5140186;28;20042;-81
2022/09/07 07:59:43;;;;;;;0.35;0.35;;;;;;;20.89;66.77;100737.63;5161824;28;20034;-81
2022/09/07 08:02:15;;;;;;;0.75;0.75;;;;;;;20.73;67.20;100727.19;5175981;28;20041;-81
2022/09/07 08:04:46;;;;;;;0.25;0.25;;;;;;;20.77;64.44;100717.19;5200385;28;20033;-79
2022/09/07 08:07:18;;;;;;;0.47;0.47;;;;;;;20.81;63.43;100715.97;5170368;28;20041;-80
2022/09/07 08:09:51;;;;;;;0.30;0.30;;;;;;;21.00;64.02;100719.06;5163505;28;20091;-80
2022/09/07 08:12:21;;;;;;;0.30;0.30;;;;;;;20.93;64.54;100728.47;5180900;28;20136;-80
2022/09/07 08:14:52;;;;;;;0.20;0.20;;;;;;;20.84;65.22;100731.78;5164417;28;20025;-80
2022/09/07 08:17:23;;;;;;;0.43;0.43;;;;;;;20.81;64.88;100731.97;5169261;28;20040;-80
2022/09/07 08:19:54;;;;;;;1.25;0.75;;;;;;;20.81;65.02;100730.19;5164575;28;20982;-81
2022/09/07 08:22:25;;;;;;;0.68;0.45;;;;;;;20.87;64.94;100731.53;5175356;28;20042;-81
2022/09/07 08:24:55;;;;;;;0.30;0.30;;;;;;;20.86;66.31;100732.53;5162416;28;20022;-80
2022/09/07 08:27:26;;;;;;;0.95;0.90;;;;;;;20.92;66.24;100732.94;5173619;28;20042;-80
2022/09/07 08:30:00;;;;;;;0.98;0.60;;;;;;;20.88;68.07;100741.25;5147025;28;20093;-79
2022/09/07 08:32:33;;;;;;;0.20;0.20;;;;;;;21.03;66.09;100731.31;5190078;28;20451;-79
2022/09/07 08:35:04;;;;;;;1.92;1.65;;;;;;;20.99;67.02;100743.19;5166206;28;20109;-79
2022/09/07 08:37:38;;;;;;;7.72;4.25;;;;;;;21.09;65.83;100741.53;5162434;28;20049;-78
2022/09/07 08:40:15;;;;;;;0.88;0.88;;;;;;;20.97;66.25;100742.44;5161953;28;20057;-80
2022/09/07 08:43:07;;;;;;;0.40;0.40;;;;;;;21.03;67.94;100750.00;5162901;28;20034;-80
2022/09/07 08:45:50;;;;;;;0.43;0.43;;;;;;;20.98;68.57;100741.47;5178832;28;20064;-80
2022/09/07 08:48:30;;;;;;;0.20;0.20;;;;;;;20.90;68.23;100740.22;5159907;28;20046;-80
2022/09/07 08:51:35;;;;;;;0.20;0.20;;;;;;;20.90;68.54;100744.66;5163432;28;20037;-80
2022/09/07 08:54:15;;;;;;;0.30;0.30;;;;;;;20.84;70.35;100745.94;5163706;28;20073;-80
2022/09/07 08:56:49;;;;;;;0.20;0.20;;;;;;;20.91;68.22;100741.88;5181315;28;20494;-80
2022/09/07 08:59:38;;;;;;;0.43;0.43;;;;;;;20.78;70.49;100746.38;5160133;28;20091;-81
2022/09/07 09:02:15;;;;;;;0.20;0.20;;;;;;;20.88;70.02;100742.13;5161896;28;20052;-82
2022/09/07 09:04:45;;;;;;;0.38;0.38;;;;;;;20.69;71.74;100747.84;5182505;28;20029;-82
2022/09/07 09:07:47;;;;;;;1.00;0.63;;;;;;;20.73;71.38;100741.38;5147478;28;20034;-82
2022/09/07 09:10:27;;;;;;;0.20;0.20;;;;;;;20.85;69.94;100746.81;5165051;28;20026;-81
2022/09/07 09:13:12;;;;;;;0.38;0.38;;;;;;;20.70;71.83;100744.22;5139589;28;20121;-81
2022/09/07 09:16:08;;;;;;;0.30;0.30;;;;;;;20.70;72.64;100743.38;5169559;28;20064;-81
2022/09/07 09:19:14;;;;;;;0.20;0.20;;;;;;;20.66;71.80;100748.06;5182452;28;20662;-81
2022/09/07 09:21:45;;;;;;;0.65;0.65;;;;;;;20.68;72.59;100754.16;5165471;28;20129;-81
2022/09/07 09:24:18;;;;;;;7.13;0.43;;;;;;;20.80;71.01;100754.25;5150857;28;20473;-81
2022/09/07 09:26:53;;;;;;;0.55;0.55;;;;;;;20.85;68.46;100752.16;5160349;28;20046;-80
2022/09/07 09:29:23;;;;;;;0.40;0.40;;;;;;;20.75;71.65;100757.25;5179064;28;20038;-81
2022/09/07 09:31:55;;;;;;;0.90;0.65;;;;;;;20.84;69.00;100761.09;5157228;28;20196;-80
2022/09/07 09:34:26;;;;;;;0.30;0.30;;;;;;;20.90;71.37;100760.66;5169404;28;20029;-80
2022/09/07 09:36:56;;;;;;;0.25;0.25;;;;;;;20.88;70.05;100770.59;5144722;28;20029;-81
2022/09/07 09:39:33;;;;;;;0.25;0.25;;;;;;;20.77;72.78;100773.16;5146847;28;20037;-81
2022/09/07 09:42:14;;;;;;;0.40;0.40;;;;;;;20.89;71.47;100780.28;5148930;28;20073;-81
2022/09/07 09:44:45;;;;;;;0.30;0.30;;;;;;;20.83;73.39;100780.72;5164650;28;20034;-80
2022/09/07 09:47:22;;;;;;;0.40;0.40;;;;;;;21.03;72.68;100782.84;5146748;28;20041;-80
2022/09/07 09:50:03;;;;;;;0.30;0.30;;;;;;;21.06;71.06;100782.63;5167640;28;20030;-80
2022/09/07 09:52:41;;;;;;;0.30;0.30;;;;;;;21.07;70.67;100776.34;5142305;28;20042;-80
2022/09/07 09:55:35;;;;;;;0.43;0.43;;;;;;;21.18;72.59;100774.75;5158865;28;20030;-79
2022/09/07 09:58:28;;;;;;;0.43;0.38;;;;;;;21.20;73.79;100780.78;5148146;28;20057;-80
2022/09/07 10:01:02;;;;;;;0.20;0.20;;;;;;;21.18;73.84;100778.25;5179254;28;20064;-81
2022/09/07 10:03:33;;;;;;;0.20;0.20;;;;;;;21.32;72.35;100784.44;5177830;28;20053;-81
2022/09/07 10:06:08;;;;;;;0.30;0.30;;;;;;;21.22;72.51;100777.06;5168134;28;20041;-80
2022/09/07 10:08:50;;;;;;;0.17;0.17;;;;;;;21.30;72.56;100781.84;5182190;28;20535;-80
2022/09/07 10:11:48;;;;;;;0.55;0.55;;;;;;;21.48;70.63;100778.81;5153503;28;20041;-80
2022/09/07 10:14:59;;;;;;;;;;;;;;;;;;;;;
2022/09/07 10:17:41;;;;;;;0.43;0.43;;;;;;;21.51;70.42;100770.59;5181406;28;20710;-81
2022/09/07 10:20:14;;;;;;;0.30;0.30;;;;;;;21.49;71.19;100777.88;5181788;28;20711;-81
2022/09/07 10:26:49;;;;;;;0.30;0.30;;;;;;;21.41;70.80;100769.56;5180660;28;20038;-80
2022/09/07 10:29:30;;;;;;;0.30;0.30;;;;;;;21.46;71.01;100772.72;5119285;28;20042;-80
2022/09/07 10:32:30;;;;;;;0.40;0.40;;;;;;;21.53;70.03;100761.50;5148740;28;20109;-82
2022/09/07 10:35:32;;;;;;;2.15;0.55;;;;;;;21.60;70.13;100763.75;5166888;28;20101;-82
2022/09/07 10:38:44;;;;;;;0.57;0.57;;;;;;;21.72;69.76;100768.22;5161943;28;20042;-81
2022/09/07 10:41:18;;;;;;;2.28;1.25;;;;;;;21.82;69.15;100760.38;5159940;28;20172;-81
2022/09/07 10:43:50;;;;;;;3.22;0.85;;;;;;;21.85;69.85;100758.31;5154084;28;20045;-80
2022/09/07 10:46:34;;;;;;;0.65;0.65;;;;;;;22.00;69.98;100761.69;5180411;28;20667;-81
2022/09/07 10:49:36;;;;;;;0.98;0.82;;;;;;;22.04;68.71;100756.09;5152240;28;20054;-81
2022/09/07 10:52:51;;;;;;;0.40;0.40;;;;;;;22.06;68.10;100760.38;5162109;28;20041;-82
2022/09/07 10:55:32;;;;;;;0.30;0.30;;;;;;;22.16;67.31;100763.19;5181284;28;20057;-81
2022/09/07 10:58:29;;;;;;;0.28;0.28;;;;;;;22.16;66.27;100757.84;5173306;28;20420;-81
2022/09/07 11:01:18;;;;;;;0.40;0.40;;;;;;;22.12;65.67;100751.00;5160571;28;20172;-81
2022/09/07 11:04:04;;;;;;;2.10;0.70;;;;;;;22.19;66.20;100749.56;5162890;28;20259;-81
2022/09/07 11:06:47;;;;;;;0.63;0.63;;;;;;;22.27;66.44;100747.16;5167686;28;20022;-81
2022/09/07 11:09:28;;;;;;;;;;;;;;;22.20;65.31;100745.94;5167710;28;20041;-80
2022/09/07 11:12:02;;;;;;;0.43;0.43;;;;;;;22.28;64.45;100746.22;5183383;28;19948;-81
2022/09/07 11:14:45;;;;;;;1.52;0.52;;;;;;;22.24;64.29;100742.09;5163766;28;20038;-81
2022/09/07 11:17:17;;;;;;;;;;;;;;;22.22;64.88;100743.19;5183026;28;20661;-80
2022/09/07 11:19:54;;;;;;;0.50;0.50;;;;;;;22.38;65.73;100745.50;5175599;28;20004;-80
2022/09/07 11:22:37;;;;;;;3.92;1.63;;;;;;;22.45;64.41;100744.09;5165452;28;20106;-81
2022/09/07 11:25:30;;;;;;;0.50;0.50;;;;;;;22.44;64.17;100734.38;5174527;28;20025;-79
2022/09/07 11:28:11;;;;;;;0.55;0.55;;;;;;;22.59;64.83;100735.00;5174081;28;20042;-81
2022/09/07 11:30:52;;;;;;;0.82;0.82;;;;;;;22.72;64.27;100732.22;5152919;28;20034;-80
2022/09/07 11:33:32;;;;;;;0.55;0.55;;;;;;;22.77;63.11;100738.06;5183778;28;20423;-82
2022/09/07 11:36:16;;;;;;;;;;;;;;;;;;;;;
2022/09/07 11:39:40;;;;;;;0.65;0.65;;;;;;;22.82;61.61;100725.19;5159472;28;20053;-81
2022/09/07 11:42:41;;;;;;;;;;;;;;;;;;;;;
2022/09/07 11:45:59;;;;;;;2.85;0.63;;;;;;;23.21;62.07;100724.84;5166397;28;20656;-81
2022/09/07 11:48:40;;;;;;;0.35;0.35;;;;;;;23.20;61.82;100734.69;5144191;28;20045;-81
2022/09/07 11:51:40;;;;;;;3.25;0.70;;;;;;;23.26;62.33;100731.50;5180464;28;20029;-81
2022/09/07 11:54:29;;;;;;;0.30;0.30;;;;;;;23.32;62.05;100726.66;5180486;28;20525;-82
2022/09/07 11:57:49;;;;;;;0.60;0.60;;;;;;;23.18;59.43;100731.28;5164784;28;20037;-81
2022/09/07 12:01:19;;;;;;;0.35;0.35;;;;;;;23.30;59.19;100731.28;5168232;28;20389;-80
2022/09/07 12:04:45;;;;;;;;;;;;;;;;;;;;;
2022/09/07 12:07:41;;;;;;;0.40;0.40;;;;;;;23.47;58.73;100725.41;5174026;28;20053;-82
2022/09/07 12:10:52;;;;;;;;;;;;;;;;;;;;;
2022/09/07 12:13:57;;;;;;;0.50;0.50;;;;;;;23.69;57.08;100713.78;5164374;28;20046;-81
2022/09/07 12:16:50;;;;;;;1.17;0.40;;;;;;;23.74;56.11;100726.78;5189277;28;20046;-82
2022/09/07 12:19:24;;;;;;;0.20;0.20;;;;;;;23.79;56.68;100719.22;5163911;28;20037;-81
2022/09/07 12:22:00;;;;;;;0.20;0.20;;;;;;;23.84;54.46;100716.97;5149590;28;20037;-81
2022/09/07 12:24:44;;;;;;;0.10;0.10;;;;;;;23.91;55.17;100705.78;5177543;28;20104;-81